Briefing drone pour Louviers

Rechercher une autre localisation

Conditions de vol :


Nous sommes le : Vendredi 01 mars 2024
Il est 04:19 UTC (05:19 LT)

Lever de soleil : 06:09 UTC (07:09 LT)
Coucher de soleil : 18:05 UTC (19:05 LT)

Météo

L'essentiel des conditions de vol

VIGILANCE MÉTÉO FRANCE - Eure (27)
Pas de vigilances particulieres
CARTE TEMSI
CARTES DES FRONTS
METAR de LFOP
LFOP 010400Z AUTO 19013KT CAVOK 04/03 Q1003

Date d'émission: 01/03/2024
Heure d'émission: 04:00 UTC
Vent: 190° pour 13 KT (24 km/h)
Visibilité horizontale: > 10 km
Plafond : Plafond et visibilité OK (CAVOK)
Température: 4 °C
Point de rosée: 3 °C
Humidité: 93%
Pression (QNH): 1003 hPa
TAF de LFOP
LFOP 230847Z 2309/2406 CNL

Conditions prévues :

Heure d'émission : Bulletin éffectué le 23 à 09:00 UTC
Prévision : Valide du 23 a 09:00 UTC au 24 a 06:00 UTC
Nuages : à 0ft (0 m)
WEBCAM POUR LOUVIERS

Réglementation

Voler en sécurité

CARTES AERONAUTIQUE 1/500.000
CARTE AZBA (Reseau basse altitude)
CARTES VAC (LFOP)
SUP AIP




Chargement des AIP...
NOTAM (LOUVIERS + Terrain à proximité / FIR )




Chargement des NOTAMS...
CONTACT PREFECTURE 27
Eure (27) : [email protected]


Avertissement : Les données mises à disposition sont indicatives. Oxygène Drone ne pourra être tenu responsable de dégâts causés aux biens et aux personnes.